Time;durP1;ratioP1;P1;durP2;ratioP2;P2;SDS_P1;SDS_P2;PMS_P1;PMS_P2;Temp;Humidity;BMP_temperature;BMP_pressure;BME280_temperature;BME280_humidity;BME280_pressure;Samples;Min_cycle;Max_cycle;Signal;HPM_P1;HPM_P2
2022/06/04 00:00:16;;;;;;;6.40;4.55;;;;;;;18.09;47.20;101130.97;681483;28;1353;-80
2022/06/04 00:00:42;;;;;;;5.20;4.40;;;;;;;18.12;47.11;101127.47;677571;29;1359;-80
2022/06/04 00:01:04;;;;;;;4.78;4.28;;;;;;;18.12;47.24;101124.84;682656;28;1146;-80
2022/06/04 00:01:28;;;;;;;5.10;4.60;;;;;;;18.14;47.12;101134.53;680655;29;1229;-80
2022/06/04 00:02:03;;;;;;;5.70;4.60;;;;;;;18.19;47.27;101126.63;684092;28;1208;-80
2022/06/04 00:02:24;;;;;;;5.57;4.43;;;;;;;18.20;47.00;101144.25;681944;29;1154;-79
2022/06/04 00:02:48;;;;;;;5.38;4.55;;;;;;;18.14;47.06;101129.25;687764;28;1272;-80
2022/06/04 00:03:11;;;;;;;6.85;4.40;;;;;;;18.14;46.98;101128.34;685112;28;2045;-80
2022/06/04 00:03:32;;;;;;;7.35;4.60;;;;;;;18.06;47.24;101129.22;682865;28;1236;-80
2022/06/04 00:03:54;;;;;;;8.30;4.80;;;;;;;18.05;47.12;101119.53;687683;28;1139;-80
2022/06/04 00:04:16;;;;;;;5.65;4.60;;;;;;;18.07;47.25;101127.47;682603;28;1261;-81
2022/06/04 00:05:23;;;;;;;5.85;4.50;;;;;;;18.15;47.13;101138.06;684628;28;1265;-80
2022/06/04 00:05:49;;;;;;;6.35;4.70;;;;;;;18.15;47.12;101135.41;690815;28;1244;-80
2022/06/04 00:06:10;;;;;;;6.47;4.70;;;;;;;18.06;47.13;101126.56;685793;28;1177;-80
2022/06/04 00:07:17;;;;;;;6.57;4.80;;;;;;;18.15;47.32;101141.59;685177;28;1094;-81
2022/06/04 00:07:40;;;;;;;6.35;4.93;;;;;;;18.12;47.30;101138.03;682188;28;1599;-80
2022/06/04 00:08:03;;;;;;;6.57;4.97;;;;;;;18.08;47.33;101129.22;682600;28;1532;-80
2022/06/04 00:08:26;;;;;;;8.43;5.10;;;;;;;18.04;47.24;101128.34;685284;28;879;-80
2022/06/04 00:09:05;;;;;;;7.50;4.80;;;;;;;18.09;47.27;101141.53;686709;28;1295;-80
2022/06/04 00:09:26;;;;;;;5.88;4.60;;;;;;;18.08;47.11;101137.16;679402;28;1514;-80
2022/06/04 00:15:38;;;;;;;6.75;4.95;;;;;;;17.77;48.02;101140.53;682396;28;1246;-81
2022/06/04 00:16:01;;;;;;;6.90;4.90;;;;;;;17.78;48.08;101152.00;680013;28;1327;-80
2022/06/04 00:16:25;;;;;;;6.68;4.90;;;;;;;17.72;48.30;101139.66;679829;29;1192;-81
2022/06/04 00:16:48;;;;;;;5.50;4.55;;;;;;;17.69;48.33;101137.00;684127;28;1363;-80
2022/06/04 00:17:09;;;;;;;6.45;4.82;;;;;;;17.76;48.32;101149.34;684567;28;1621;-80
2022/06/04 00:17:30;;;;;;;8.23;5.15;;;;;;;17.74;48.42;101145.81;685276;28;1329;-80
2022/06/04 00:17:52;;;;;;;9.07;5.00;;;;;;;17.78;48.40;101158.16;682174;28;1295;-80
2022/06/04 00:18:13;;;;;;;8.43;4.65;;;;;;;17.71;48.56;101155.50;685198;28;1405;-80
2022/06/04 00:18:36;;;;;;;5.80;4.25;;;;;;;17.67;48.78;101149.31;685161;28;1321;-80
2022/06/04 00:18:57;;;;;;;5.63;4.28;;;;;;;17.65;48.39;101141.38;680031;29;1210;-80
2022/06/04 00:19:19;;;;;;;4.72;4.32;;;;;;;17.76;48.64;101162.53;680578;29;1184;-80
2022/06/04 00:19:40;;;;;;;4.93;4.28;;;;;;;17.72;48.52;101157.25;678037;29;1148;-81
2022/06/04 00:20:03;;;;;;;6.43;4.43;;;;;;;17.68;48.31;101151.97;681734;29;1170;-80
2022/06/04 00:20:24;;;;;;;6.53;4.50;;;;;;;17.74;48.39;101161.66;683296;28;1262;-80
2022/06/04 00:20:46;;;;;;;5.85;4.60;;;;;;;17.75;48.11;101166.06;686782;28;1457;-80
2022/06/04 00:21:09;;;;;;;5.03;4.53;;;;;;;17.69;48.55;101152.81;679934;29;1364;-80
2022/06/04 00:21:30;;;;;;;5.15;4.50;;;;;;;17.70;48.59;101157.22;680189;29;1256;-81
2022/06/04 00:21:52;;;;;;;6.40;4.47;;;;;;;17.72;48.87;101160.78;684783;28;1296;-80
2022/06/04 00:22:15;;;;;;;6.63;4.50;;;;;;;17.73;48.56;101165.19;682534;29;1368;-80
2022/06/04 00:22:35;;;;;;;5.70;4.40;;;;;;;17.68;48.66;101157.25;682916;28;1314;-80
2022/06/04 00:22:59;;;;;;;4.97;4.40;;;;;;;17.67;48.70;101155.50;679907;29;1075;-80
2022/06/04 00:23:21;;;;;;;4.97;4.47;;;;;;;17.69;48.82;101155.47;679437;29;1318;-80
2022/06/04 00:23:42;;;;;;;5.13;4.63;;;;;;;17.68;48.83;101153.72;682675;28;1255;-80
2022/06/04 00:24:05;;;;;;;5.65;4.90;;;;;;;17.59;48.79;101144.00;682808;28;1115;-80
2022/06/04 00:24:26;;;;;;;7.13;5.00;;;;;;;17.61;48.57;101144.00;682435;28;1473;-80
2022/06/04 00:24:48;;;;;;;7.70;5.00;;;;;;;17.67;48.75;101159.88;685280;28;1303;-80
2022/06/04 00:25:12;;;;;;;7.03;5.07;;;;;;;17.62;48.72;101151.03;685793;28;1289;-80
2022/06/04 00:25:35;;;;;;;6.10;5.05;;;;;;;17.66;48.89;101158.09;682432;29;1921;-80
2022/06/04 00:25:59;;;;;;;6.50;4.80;;;;;;;17.63;48.87;101158.06;680060;29;808;-80
2022/06/04 00:26:21;;;;;;;6.07;4.70;;;;;;;17.62;48.81;101161.59;682596;28;1221;-80
2022/06/04 00:26:42;;;;;;;5.53;4.80;;;;;;;17.65;48.97;101166.91;681883;29;1414;-80
2022/06/04 00:27:03;;;;;;;5.40;4.90;;;;;;;17.60;49.18;101156.31;681718;29;1402;-80
2022/06/04 00:27:24;;;;;;;5.60;5.10;;;;;;;17.59;49.14;101151.03;685257;28;949;-80
2022/06/04 00:27:46;;;;;;;5.60;5.10;;;;;;;17.60;48.87;101156.31;682686;29;1337;-80
2022/06/04 00:28:09;;;;;;;5.30;4.80;;;;;;;17.63;49.02;101153.69;681334;29;1310;-80
2022/06/04 00:28:31;;;;;;;6.68;4.70;;;;;;;17.60;49.15;101150.16;680485;28;1370;-80
2022/06/04 00:28:52;;;;;;;8.55;5.00;;;;;;;17.65;49.00;101156.34;682135;29;1332;-80
2022/06/04 00:29:13;;;;;;;8.27;5.15;;;;;;;17.65;48.88;101151.06;685231;28;1142;-80
2022/06/04 00:29:35;;;;;;;8.52;5.50;;;;;;;17.60;48.95;101152.78;684630;28;1405;-82
2022/06/04 00:29:57;;;;;;;7.45;5.40;;;;;;;17.57;49.05;101158.06;685090;28;1203;-81
2022/06/04 00:30:19;;;;;;;6.72;5.32;;;;;;;17.53;49.25;101158.03;685236;28;1206;-80
2022/06/04 00:30:41;;;;;;;6.30;5.18;;;;;;;17.49;49.24;101145.72;682235;28;1137;-81
2022/06/04 00:31:04;;;;;;;5.63;4.90;;;;;;;17.56;49.18;101151.03;681789;29;1353;-81
2022/06/04 00:31:27;;;;;;;5.20;4.70;;;;;;;17.53;49.09;101141.34;682447;29;1275;-80
2022/06/04 00:31:51;;;;;;;5.40;4.70;;;;;;;17.51;49.27;101143.97;684745;28;1139;-80
2022/06/04 00:32:14;;;;;;;5.22;4.65;;;;;;;17.47;49.34;101147.47;684458;28;1202;-81
2022/06/04 00:32:35;;;;;;;5.10;4.60;;;;;;;17.54;49.21;101165.06;679854;29;1822;-80
2022/06/04 00:32:57;;;;;;;5.13;4.63;;;;;;;17.47;49.47;101155.38;679263;29;1055;-80
2022/06/04 00:33:20;;;;;;;5.05;4.57;;;;;;;17.46;49.34;101145.69;682424;28;1256;-80
2022/06/04 00:33:41;;;;;;;7.05;4.90;;;;;;;17.48;49.64;101153.63;681331;28;1223;-80
2022/06/04 00:34:04;;;;;;;8.60;5.20;;;;;;;17.42;49.59;101151.84;679939;28;915;-80
2022/06/04 00:34:25;;;;;;;7.95;5.28;;;;;;;17.43;49.58;101153.59;685450;28;1291;-80
2022/06/04 00:34:46;;;;;;;7.80;5.15;;;;;;;17.42;49.81;101157.09;686784;28;1268;-80
2022/06/04 00:35:08;;;;;;;5.72;5.00;;;;;;;17.47;49.52;101157.13;682378;29;1206;-80
2022/06/04 00:35:35;;;;;;;6.20;5.00;;;;;;;17.48;49.59;101153.63;681167;28;1338;-80
2022/06/04 00:36:06;;;;;;;5.47;4.88;;;;;;;17.42;49.53;101149.19;683115;28;1057;-80
2022/06/04 00:36:37;;;;;;;6.20;4.90;;;;;;;17.40;49.55;101156.22;685088;28;1077;-80
2022/06/04 00:37:05;;;;;;;7.72;5.20;;;;;;;17.44;49.82;101163.25;684367;28;1249;-80
2022/06/04 00:37:27;;;;;;;6.40;5.40;;;;;;;17.41;49.76;101160.63;685108;28;1125;-80
2022/06/04 00:37:49;;;;;;;5.95;5.35;;;;;;;17.42;49.99;101164.13;685159;28;1343;-80
2022/06/04 00:38:13;;;;;;;5.70;5.10;;;;;;;17.39;50.02;101151.78;684994;28;1675;-79
2022/06/04 00:38:35;;;;;;;5.55;4.97;;;;;;;17.43;50.02;101164.16;685108;28;1113;-80
2022/06/04 00:38:59;;;;;;;5.28;4.78;;;;;;;17.38;49.76;101156.22;688046;28;819;-79
2022/06/04 00:39:22;;;;;;;5.57;4.70;;;;;;;17.33;49.89;101154.41;689894;28;1112;-80
2022/06/04 00:39:46;;;;;;;6.10;4.63;;;;;;;17.32;49.86;101152.66;688254;28;1424;-79
2022/06/04 00:40:14;;;;;;;7.28;4.93;;;;;;;17.38;49.78;101164.13;685176;28;1330;-80
2022/06/04 00:40:50;;;;;;;6.50;5.10;;;;;;;17.32;49.95;101142.97;677589;29;1314;-80
2022/06/04 00:41:20;;;;;;;5.60;4.80;;;;;;;17.39;49.92;101162.34;680025;29;1061;-80
2022/06/04 00:42:03;;;;;;;6.18;4.60;;;;;;;17.37;50.09;101158.81;679804;29;1198;-80
2022/06/04 00:42:25;;;;;;;7.75;4.93;;;;;;;17.34;50.21;101157.03;677374;29;955;-80
2022/06/04 00:42:46;;;;;;;6.07;5.13;;;;;;;17.24;50.16;101135.03;681319;29;1136;-80
2022/06/04 00:43:08;;;;;;;6.13;5.15;;;;;;;17.30;50.08;101150.00;685153;28;1079;-80
2022/06/04 00:43:32;;;;;;;6.40;5.03;;;;;;;17.32;50.10;101152.66;682644;29;1376;-80
2022/06/04 00:44:31;;;;;;;6.07;4.80;;;;;;;17.32;50.23;101147.38;687536;28;1118;-80
2022/06/04 00:45:29;;;;;;;6.30;5.00;;;;;;;17.34;50.28;101145.63;687596;28;1304;-80
2022/06/04 00:46:15;;;;;;;6.55;4.85;;;;;;;17.34;50.29;101145.63;687144;28;1295;-80
2022/06/04 00:46:40;;;;;;;11.30;5.40;;;;;;;17.31;50.26;101153.50;685204;28;1240;-80
2022/06/04 00:47:24;;;;;;;7.20;5.20;;;;;;;17.29;50.38;101142.06;681558;28;1759;-81
2022/06/04 00:47:47;;;;;;;7.28;5.45;;;;;;;17.25;50.38;101136.78;683761;28;1264;-79
2022/06/04 00:48:21;;;;;;;;;;;;;;;;;;;;;
2022/06/04 00:49:22;;;;;;;5.43;4.93;;;;;;;17.28;50.61;101150.88;681601;29;1450;-80
2022/06/04 00:49:44;;;;;;;5.50;5.00;;;;;;;17.20;50.70;101134.97;680087;29;1535;-80
2022/06/04 00:50:08;;;;;;;6.53;5.22;;;;;;;17.22;50.33;101142.03;680222;29;1492;-80
2022/06/04 00:50:31;;;;;;;8.35;5.68;;;;;;;17.29;50.61;101148.25;685048;28;1359;-81
2022/06/04 00:50:53;;;;;;;9.85;5.40;;;;;;;17.18;50.36;101134.06;684627;28;1269;-80
2022/06/04 00:51:15;;;;;;;11.27;5.13;;;;;;;17.20;50.53;101143.75;682736;28;1143;-80
2022/06/04 00:51:38;;;;;;;9.88;5.00;;;;;;;17.15;50.48;101134.06;685137;28;1326;-80
2022/06/04 00:52:20;;;;;;;9.73;5.22;;;;;;;17.20;50.67;101149.03;682591;28;1225;-79
2022/06/04 00:52:46;;;;;;;6.32;5.10;;;;;;;17.15;50.61;101144.59;683354;28;1179;-80
2022/06/04 00:53:10;;;;;;;6.60;5.10;;;;;;;17.07;50.70;101133.97;682468;29;1352;-79
2022/06/04 00:53:34;;;;;;;6.07;4.80;;;;;;;17.19;50.83;101156.91;682453;29;934;-80
2022/06/04 00:53:57;;;;;;;6.00;5.00;;;;;;;17.16;50.76;101141.97;679975;29;1388;-80
2022/06/04 00:54:20;;;;;;;6.35;4.97;;;;;;;17.21;50.75;101150.81;684935;28;1480;-79
2022/06/04 00:54:45;;;;;;;7.40;5.20;;;;;;;17.23;50.84;101149.06;687844;28;1218;-80
2022/06/04 00:55:08;;;;;;;8.32;5.05;;;;;;;17.22;50.72;101149.06;683916;28;1250;-80
2022/06/04 00:55:50;;;;;;;7.38;5.10;;;;;;;17.19;50.67;101142.00;679655;29;1271;-80
2022/06/04 00:56:23;;;;;;;9.20;5.28;;;;;;;17.28;50.58;101148.22;677318;29;1426;-80
2022/06/04 00:56:54;;;;;;;10.52;5.40;;;;;;;17.28;50.59;101150.88;680539;29;1119;-80
2022/06/04 00:57:50;;;;;;;6.82;5.28;;;;;;;17.26;50.62;101149.09;679944;29;1089;-80
2022/06/04 00:58:12;;;;;;;6.32;5.25;;;;;;;17.27;50.68;101152.59;682297;29;1064;-80
2022/06/04 00:58:55;;;;;;;6.13;5.18;;;;;;;17.25;50.74;101147.34;686888;28;1881;-80
2022/06/04 00:59:40;;;;;;;6.25;5.20;;;;;;;17.23;50.72;101146.44;681676;29;1233;-80
2022/06/04 01:00:13;;;;;;;5.50;5.00;;;;;;;17.20;50.86;101145.53;683330;28;1060;-80
2022/06/04 01:00:56;;;;;;;5.90;5.30;;;;;;;17.21;50.72;101142.91;681910;29;1699;-80
2022/06/04 01:01:28;;;;;;;6.72;4.85;;;;;;;17.19;50.87;101142.00;682419;28;1577;-80
2022/06/04 01:02:00;;;;;;;6.95;4.82;;;;;;;17.13;50.77;101127.00;682396;29;1161;-80
2022/06/04 01:02:28;;;;;;;5.68;4.82;;;;;;;17.20;50.88;101138.47;679606;28;1288;-79
2022/06/04 01:03:18;;;;;;;6.60;5.00;;;;;;;17.22;50.70;101144.66;681900;29;1407;-80
2022/06/04 01:04:04;;;;;;;9.50;5.50;;;;;;;17.15;50.93;101128.78;683012;28;1474;-80
2022/06/04 01:04:49;;;;;;;6.20;5.57;;;;;;;17.16;50.95;101135.81;682471;29;980;-81
2022/06/04 01:05:36;;;;;;;5.82;5.30;;;;;;;17.16;50.91;101139.34;678836;29;1123;-80
2022/06/04 01:06:24;;;;;;;7.10;5.45;;;;;;;17.15;51.01;101134.91;684705;28;1649;-80
2022/06/04 01:07:01;;;;;;;6.57;5.47;;;;;;;17.11;50.88;101133.16;685058;28;1131;-80
2022/06/04 01:07:52;;;;;;;8.13;5.70;;;;;;;17.13;50.88;101137.56;687412;28;1161;-80
2022/06/04 01:08:32;;;;;;;7.15;5.68;;;;;;;17.04;51.20;101141.88;685166;28;1134;-80
2022/06/04 01:09:20;;;;;;;6.03;5.43;;;;;;;17.02;51.26;101143.63;686545;28;1314;-80
2022/06/04 01:09:59;;;;;;;6.22;5.63;;;;;;;16.91;51.38;101133.00;689948;28;975;-80
2022/06/04 01:10:54;;;;;;;6.93;5.75;;;;;;;16.98;51.33;101138.31;687654;28;1282;-81
2022/06/04 01:11:18;;;;;;;6.13;5.10;;;;;;;17.00;51.42;101151.53;685886;28;1136;-80
2022/06/04 01:12:11;;;;;;;6.30;5.10;;;;;;;17.01;51.22;101147.16;685262;28;1273;-80
2022/06/04 01:13:00;;;;;;;5.60;5.10;;;;;;;17.02;51.25;101154.19;686691;28;980;-80
2022/06/04 01:13:38;;;;;;;5.78;5.18;;;;;;;16.90;51.30;101147.94;684835;28;1085;-81
2022/06/04 01:14:46;;;;;;;6.50;5.80;;;;;;;17.02;51.20;101162.97;682528;29;807;-80
2022/06/04 01:15:30;;;;;;;5.90;5.30;;;;;;;17.03;51.19;101170.00;687200;28;1745;-80
2022/06/04 01:16:23;;;;;;;5.95;5.40;;;;;;;16.92;51.37;101169.03;686025;28;1186;-80
2022/06/04 01:17:12;;;;;;;7.00;5.40;;;;;;;16.93;51.44;101168.16;683183;28;1155;-80
2022/06/04 01:17:50;;;;;;;7.95;5.30;;;;;;;16.93;51.46;101165.53;681267;28;1321;-80
2022/06/04 01:18:24;;;;;;;7.78;5.50;;;;;;;16.95;51.41;101163.78;679321;29;1029;-80
2022/06/04 01:18:50;;;;;;;7.32;5.63;;;;;;;16.90;51.41;101165.50;682661;28;1248;-80
2022/06/04 01:19:25;;;;;;;6.90;5.63;;;;;;;16.91;51.31;101160.22;677994;28;1336;-79
2022/06/04 01:19:54;;;;;;;7.07;5.78;;;;;;;16.93;51.61;101176.97;681716;28;1112;-81
2022/06/04 01:20:23;;;;;;;7.80;5.65;;;;;;;16.90;51.60;101166.38;682281;28;1456;-80
2022/06/04 01:21:12;;;;;;;6.45;5.20;;;;;;;16.86;51.54;101164.59;684644;28;1270;-80
2022/06/04 01:21:40;;;;;;;7.57;5.25;;;;;;;16.94;51.46;101178.72;682626;28;1105;-80
2022/06/04 01:22:09;;;;;;;7.15;5.03;;;;;;;16.91;51.47;101173.41;679746;29;1080;-80
2022/06/04 01:22:32;;;;;;;6.00;5.40;;;;;;;16.85;51.52;101174.25;682886;28;1010;-81
2022/06/04 01:23:43;;;;;;;6.60;5.70;;;;;;;16.84;51.65;101179.53;685228;28;1452;-80
2022/06/04 01:24:59;;;;;;;6.85;5.20;;;;;;;16.84;51.48;101176.91;688212;28;1471;-79
2022/06/04 01:25:33;;;;;;;6.10;5.30;;;;;;;16.77;51.46;101172.44;682157;29;2005;-80
2022/06/04 01:26:12;;;;;;;5.60;5.10;;;;;;;16.82;51.31;101189.16;681896;29;1305;-79
2022/06/04 01:26:52;;;;;;;6.03;5.20;;;;;;;16.78;51.54;101182.97;681587;29;1131;-80
2022/06/04 01:28:14;;;;;;;5.72;5.07;;;;;;;16.78;51.53;101182.09;685037;28;1324;-80
2022/06/04 01:32:31;;;;;;;7.20;5.30;;;;;;;16.66;51.86;101189.03;681626;28;1329;-81
2022/06/04 01:32:59;;;;;;;7.35;5.30;;;;;;;16.60;51.78;101181.09;682545;28;1075;-80
2022/06/04 01:33:31;;;;;;;6.00;5.40;;;;;;;16.52;51.77;101173.09;681704;29;1420;-80
2022/06/04 01:33:59;;;;;;;6.10;5.50;;;;;;;16.56;51.95;101179.28;681294;29;1360;-80
2022/06/04 01:34:28;;;;;;;6.57;5.47;;;;;;;16.52;51.77;101173.09;676374;29;1357;-80
2022/06/04 01:35:04;;;;;;;7.22;5.45;;;;;;;16.59;52.09;101179.28;679944;29;1219;-80
2022/06/04 01:35:27;;;;;;;5.85;4.97;;;;;;;16.54;52.01;101173.97;682483;29;1139;-80
2022/06/04 01:36:06;;;;;;;5.60;5.00;;;;;;;16.60;52.20;101189.00;683958;28;1423;-81
2022/06/04 01:36:33;;;;;;;6.60;5.07;;;;;;;16.48;52.22;101163.41;684959;28;798;-80
2022/06/04 01:37:00;;;;;;;6.90;5.20;;;;;;;16.51;52.12;101165.16;685144;28;1150;-80
2022/06/04 01:37:30;;;;;;;6.88;5.40;;;;;;;16.63;52.19;101177.56;685056;28;1329;-80
2022/06/04 01:38:24;;;;;;;7.60;5.40;;;;;;;16.54;52.10;101173.97;683604;28;1218;-80
2022/06/04 01:38:57;;;;;;;7.35;5.20;;;;;;;16.57;52.15;101175.75;682256;28;1305;-80
2022/06/04 01:39:23;;;;;;;9.98;5.55;;;;;;;16.59;52.07;101176.66;684946;28;1125;-80
2022/06/04 01:41:23;;;;;;;6.10;5.50;;;;;;;16.62;52.01;101181.06;690006;28;1028;-80
2022/06/04 01:41:52;;;;;;;5.80;5.30;;;;;;;16.64;51.94;101195.13;687592;28;1232;-80
2022/06/04 01:42:14;;;;;;;6.70;5.40;;;;;;;16.56;52.01;101182.81;685652;28;1618;-80
2022/06/04 01:42:37;;;;;;;7.15;5.60;;;;;;;16.62;51.96;101191.63;685061;28;1385;-80
2022/06/04 01:43:01;;;;;;;6.00;5.40;;;;;;;16.54;51.99;101179.25;685090;28;1231;-80
2022/06/04 01:43:26;;;;;;;6.68;5.43;;;;;;;16.53;51.99;101177.47;682453;28;1724;-80
2022/06/04 01:43:57;;;;;;;6.55;5.55;;;;;;;16.58;52.16;101190.69;687130;28;1219;-80
2022/06/04 01:44:22;;;;;;;6.10;5.50;;;;;;;16.59;52.17;101195.09;682370;29;1543;-80
2022/06/04 01:44:46;;;;;;;6.75;5.95;;;;;;;16.56;52.04;101195.06;683381;28;1212;-80
2022/06/04 01:45:24;;;;;;;7.07;6.18;;;;;;;16.46;52.24;101177.44;689889;28;1248;-80
2022/06/04 01:45:49;;;;;;;6.75;5.43;;;;;;;16.50;52.27;101184.47;687751;28;978;-80
2022/06/04 01:46:16;;;;;;;7.05;5.50;;;;;;;16.52;52.24;101190.63;685054;28;1155;-80
2022/06/04 01:46:51;;;;;;;6.57;5.70;;;;;;;16.55;52.09;101193.31;687668;28;1503;-80
2022/06/04 01:47:13;;;;;;;7.13;5.30;;;;;;;16.54;52.08;101200.31;685029;28;944;-80
2022/06/04 01:47:36;;;;;;;6.70;5.28;;;;;;;16.47;51.95;101181.81;685038;28;1236;-81
2022/06/04 01:47:59;;;;;;;6.43;5.60;;;;;;;16.49;52.09;101182.72;682524;29;1023;-80
2022/06/04 01:48:22;;;;;;;6.43;5.53;;;;;;;16.51;52.11;101187.13;685007;28;1128;-81
2022/06/04 01:48:48;;;;;;;6.82;5.60;;;;;;;16.49;52.07;101185.34;686058;28;1312;-81
2022/06/04 01:49:15;;;;;;;9.23;5.50;;;;;;;16.47;52.06;101181.81;679733;28;1081;-80
2022/06/04 01:49:50;;;;;;;9.07;5.35;;;;;;;16.54;52.13;101204.72;679311;29;1040;-80
2022/06/04 01:50:17;;;;;;;8.35;5.30;;;;;;;16.48;52.20;101186.22;681609;29;1173;-80
2022/06/04 01:50:47;;;;;;;9.02;5.57;;;;;;;16.53;52.12;101198.56;682173;29;1256;-80
2022/06/04 01:51:22;;;;;;;7.30;6.10;;;;;;;16.46;52.11;101180.06;684710;28;1453;-80
2022/06/04 01:51:46;;;;;;;7.68;6.55;;;;;;;16.49;51.97;101194.16;687599;28;1476;-80
2022/06/04 01:52:15;;;;;;;6.53;5.90;;;;;;;16.53;51.83;101200.31;687552;28;1210;-80
2022/06/04 01:52:39;;;;;;;6.38;5.25;;;;;;;16.54;52.05;101200.31;682232;28;1928;-80
2022/06/04 01:53:03;;;;;;;8.15;5.50;;;;;;;16.46;52.37;101193.22;682402;29;1229;-80
2022/06/04 01:53:34;;;;;;;8.98;5.30;;;;;;;16.49;52.14;101191.50;682375;28;1203;-80
2022/06/04 01:54:00;;;;;;;8.07;4.82;;;;;;;16.42;52.31;101185.28;682300;29;1073;-80
2022/06/04 01:54:46;;;;;;;8.05;5.00;;;;;;;16.40;52.13;101189.66;679547;28;1118;-79
2022/06/04 01:55:18;;;;;;;5.95;5.30;;;;;;;16.46;52.40;101203.75;684978;28;1147;-80
2022/06/04 01:55:49;;;;;;;5.80;5.30;;;;;;;16.42;52.26;101189.69;685122;28;1218;-80
2022/06/04 01:56:17;;;;;;;6.13;5.45;;;;;;;16.37;52.27;101186.09;679522;29;1832;-80
2022/06/04 01:56:43;;;;;;;7.80;5.65;;;;;;;16.43;52.35;101194.94;679830;29;1115;-80
2022/06/04 01:57:24;;;;;;;7.63;5.80;;;;;;;16.38;52.47;101201.03;682284;28;1202;-79
2022/06/04 01:57:50;;;;;;;5.82;5.15;;;;;;;16.37;52.62;101202.81;682420;29;1143;-80
2022/06/04 01:58:25;;;;;;;5.30;4.80;;;;;;;16.37;52.52;101202.81;680071;28;1650;-79
2022/06/04 01:58:52;;;;;;;5.50;5.00;;;;;;;16.29;52.53;101193.94;682344;29;1147;-80
2022/06/04 01:59:22;;;;;;;6.95;5.10;;;;;;;16.35;52.57;101207.16;685066;28;1024;-80
2022/06/04 01:59:52;;;;;;;7.65;5.15;;;;;;;16.26;52.69;101189.50;686804;28;1039;-80
2022/06/04 02:00:20;;;;;;;7.15;5.30;;;;;;;16.36;52.59;101208.03;687251;28;1762;-81
2022/06/04 02:00:54;;;;;;;6.93;5.00;;;;;;;16.25;52.74;101200.00;690397;28;1274;-80
2022/06/04 02:01:29;;;;;;;6.55;5.00;;;;;;;16.27;52.65;101204.44;689653;28;956;-80
2022/06/04 02:01:52;;;;;;;6.93;5.40;;;;;;;16.23;52.74;101193.81;685034;28;1222;-80
2022/06/04 02:02:21;;;;;;;6.88;5.65;;;;;;;16.28;52.71;101202.69;682295;29;1392;-80
2022/06/04 02:03:04;;;;;;;6.95;5.45;;;;;;;16.22;52.87;101202.59;682401;28;816;-80
2022/06/04 02:03:33;;;;;;;6.25;5.32;;;;;;;16.21;52.88;101195.56;685027;28;937;-79
2022/06/04 02:04:13;;;;;;;9.15;5.85;;;;;;;16.28;52.75;101211.47;687344;28;1293;-80
2022/06/04 02:04:40;;;;;;;8.57;5.95;;;;;;;16.24;52.83;101211.38;682197;29;1566;-79
2022/06/04 02:05:06;;;;;;;6.40;5.32;;;;;;;16.20;52.77;101201.66;684973;28;827;-80
2022/06/04 02:05:39;;;;;;;7.88;5.45;;;;;;;16.16;53.01;101204.28;684904;28;2037;-80
2022/06/04 02:06:09;;;;;;;9.13;5.60;;;;;;;16.10;53.07;101203.34;687669;28;1108;-80
2022/06/04 02:06:40;;;;;;;7.40;5.40;;;;;;;16.18;53.10;101213.06;682284;29;974;-79
2022/06/04 02:07:52;;;;;;;6.40;5.80;;;;;;;16.11;53.33;101207.72;687644;28;1243;-80
2022/06/04 02:08:16;;;;;;;7.07;5.70;;;;;;;16.11;53.01;101205.97;685091;28;1256;-80
2022/06/04 02:08:48;;;;;;;7.57;5.50;;;;;;;16.13;53.40;101208.63;682437;28;1295;-80
2022/06/04 02:09:15;;;;;;;6.45;5.60;;;;;;;16.07;53.21;101198.91;684865;28;1055;-80
2022/06/04 02:09:39;;;;;;;6.53;5.93;;;;;;;16.02;53.30;101197.97;684724;28;1123;-80
2022/06/04 02:10:09;;;;;;;7.20;5.68;;;;;;;16.14;53.40;101221.81;681630;29;1202;-79
2022/06/04 02:10:38;;;;;;;8.80;5.63;;;;;;;16.11;53.44;101218.25;685045;28;893;-80
2022/06/04 02:11:05;;;;;;;7.43;5.70;;;;;;;16.10;53.49;101217.38;687565;28;1694;-80
2022/06/04 02:11:26;;;;;;;6.00;5.40;;;;;;;16.11;53.19;101213.88;684925;28;1142;-80
2022/06/04 02:11:54;;;;;;;6.38;5.30;;;;;;;15.99;53.48;101200.56;681685;29;1420;-81
2022/06/04 02:12:16;;;;;;;7.95;5.50;;;;;;;16.13;53.44;101219.16;679595;28;1117;-80
2022/06/04 02:12:38;;;;;;;9.10;5.70;;;;;;;16.09;53.33;101218.22;679808;29;1453;-80
2022/06/04 02:13:08;;;;;;;8.35;5.80;;;;;;;16.06;53.35;101202.41;682239;29;1554;-80
2022/06/04 02:13:31;;;;;;;7.97;5.88;;;;;;;16.11;53.69;101205.97;685096;28;906;-80
2022/06/04 02:13:55;;;;;;;6.80;5.90;;;;;;;16.12;53.44;101212.13;687223;28;1274;-80
2022/06/04 02:14:16;;;;;;;7.53;5.85;;;;;;;16.06;53.39;101197.16;682263;29;1109;-80
2022/06/04 02:14:38;;;;;;;8.00;5.47;;;;;;;16.18;53.29;101218.34;679847;29;1300;-80
2022/06/04 02:15:04;;;;;;;7.22;5.30;;;;;;;16.11;53.01;101205.97;685009;28;1216;-80
2022/06/04 02:15:33;;;;;;;7.47;5.60;;;;;;;16.01;53.35;101198.84;682226;28;1362;-80
2022/06/04 02:16:19;;;;;;;7.47;5.78;;;;;;;16.00;53.53;101199.69;682158;29;1223;-80
2022/06/04 02:16:48;;;;;;;9.00;5.85;;;;;;;16.04;53.51;101212.03;682095;28;1286;-79
2022/06/04 02:17:13;;;;;;;7.43;6.00;;;;;;;16.02;53.72;101203.22;679645;29;995;-80
2022/06/04 02:17:38;;;;;;;7.35;6.07;;;;;;;15.96;53.61;101201.41;682337;29;963;-80
2022/06/04 02:18:02;;;;;;;6.35;5.72;;;;;;;15.91;53.86;101192.56;679764;29;1353;-80
2022/06/04 02:18:23;;;;;;;6.43;5.70;;;;;;;15.99;53.81;101211.09;679465;28;1201;-80
2022/06/04 02:18:44;;;;;;;6.50;5.80;;;;;;;15.93;53.86;101200.47;680941;29;1402;-80
2022/06/04 02:19:06;;;;;;;7.70;6.00;;;;;;;15.90;53.74;101196.06;682271;28;1228;-80
2022/06/04 02:19:26;;;;;;;8.20;5.70;;;;;;;15.91;53.88;101200.47;679458;29;1061;-80
2022/06/04 02:19:48;;;;;;;8.82;5.75;;;;;;;15.90;53.73;101196.97;679288;29;1211;-80
2022/06/04 02:20:09;;;;;;;8.02;5.85;;;;;;;15.92;54.13;101204.00;679597;29;1485;-80
2022/06/04 02:20:30;;;;;;;7.75;6.15;;;;;;;15.92;54.03;101204.00;679610;29;1118;-79
2022/06/04 02:20:50;;;;;;;7.55;6.10;;;;;;;15.92;53.79;101204.84;679703;29;1473;-80
2022/06/04 02:21:11;;;;;;;8.95;5.93;;;;;;;15.85;54.18;101198.63;682363;29;1008;-79
2022/06/04 02:21:33;;;;;;;8.63;5.90;;;;;;;15.89;54.18;101211.00;682361;29;1175;-80
2022/06/04 02:21:54;;;;;;;8.00;6.00;;;;;;;15.80;54.07;101200.31;685046;28;1425;-80
2022/06/04 02:22:16;;;;;;;6.20;5.60;;;;;;;15.90;54.09;101220.66;684908;28;1269;-80
2022/06/04 02:22:37;;;;;;;5.90;5.40;;;;;;;15.84;54.01;101207.41;684848;28;1111;-80
2022/06/04 02:22:58;;;;;;;6.05;5.43;;;;;;;15.79;54.13;101203.81;679531;29;1548;-80
2022/06/04 02:23:19;;;;;;;7.90;5.60;;;;;;;15.85;54.25;101218.81;685016;28;1088;-80
2022/06/04 02:23:40;;;;;;;8.30;5.60;;;;;;;15.81;54.09;101196.84;688853;28;1693;-80
2022/06/04 02:24:01;;;;;;;7.05;5.68;;;;;;;15.90;53.99;101220.66;685774;28;1707;-79
2022/06/04 02:24:23;;;;;;;6.97;5.80;;;;;;;15.88;54.00;101206.56;682353;28;866;-81
2022/06/04 02:24:44;;;;;;;6.93;5.97;;;;;;;15.88;53.95;101213.59;680732;29;1238;-80
2022/06/04 02:25:08;;;;;;;6.70;6.00;;;;;;;15.86;53.96;101208.28;682365;29;1359;-79
2022/06/04 02:25:30;;;;;;;6.32;5.72;;;;;;;15.86;53.99;101203.03;679837;29;1907;-80
2022/06/04 02:25:51;;;;;;;6.50;5.80;;;;;;;15.88;53.86;101209.19;681708;29;1077;-80
2022/06/04 02:26:12;;;;;;;6.97;5.90;;;;;;;15.92;53.75;101214.50;682300;28;1331;-80
2022/06/04 02:26:34;;;;;;;7.35;6.05;;;;;;;15.88;54.02;101209.19;682348;29;937;-80
2022/06/04 02:27:06;;;;;;;8.95;6.10;;;;;;;15.87;53.83;101202.16;684759;28;1439;-80
2022/06/04 02:27:28;;;;;;;8.35;5.90;;;;;;;15.92;53.94;101204.00;684781;28;959;-80
2022/06/04 02:27:51;;;;;;;8.10;5.82;;;;;;;15.82;54.01;101198.59;684582;28;1268;-80
2022/06/04 02:28:12;;;;;;;6.80;6.10;;;;;;;15.82;54.40;101206.50;687574;28;1327;-80
2022/06/04 02:28:35;;;;;;;6.53;5.93;;;;;;;15.89;54.22;101210.09;684952;28;1304;-80
2022/06/04 02:28:59;;;;;;;6.65;5.90;;;;;;;15.92;54.00;101219.78;683719;28;918;-80
2022/06/04 02:29:20;;;;;;;7.28;6.18;;;;;;;15.90;54.07;101211.84;687644;28;1373;-80
2022/06/04 02:29:41;;;;;;;7.13;6.20;;;;;;;15.83;54.13;101213.53;685151;28;1115;-80
2022/06/04 02:30:02;;;;;;;6.57;5.78;;;;;;;15.77;54.30;101195.03;684983;28;1358;-80
2022/06/04 02:30:37;;;;;;;7.53;5.68;;;;;;;15.90;54.24;101219.75;682083;28;1245;-80